createdAt,value
2023-04-20T00:01:13.973Z,100.00
2023-04-20T00:03:46.951Z,100.00
2023-04-20T00:06:14.083Z,100.00
2023-04-20T00:08:42.933Z,100.00
2023-04-20T00:11:11.217Z,100.00
2023-04-20T00:13:38.779Z,100.00
2023-04-20T00:16:07.276Z,100.00
2023-04-20T00:18:33.982Z,100.00
2023-04-20T00:21:00.767Z,100.00
2023-04-20T00:23:27.582Z,100.00
2023-04-20T00:25:54.581Z,100.00
2023-04-20T00:28:21.333Z,100.00
2023-04-20T00:30:48.330Z,100.00
2023-04-20T00:33:15.236Z,100.00
2023-04-20T00:35:44.642Z,100.00
2023-04-20T00:38:15.629Z,100.00
2023-04-20T00:40:48.026Z,100.00
2023-04-20T00:43:16.870Z,100.00
2023-04-20T00:45:51.451Z,100.00
2023-04-20T00:48:19.564Z,100.00
2023-04-20T00:50:47.358Z,100.00
2023-04-20T00:53:14.367Z,100.00
2023-04-20T00:55:43.765Z,100.00
2023-04-20T00:58:12.707Z,100.00
2023-04-20T01:00:40.637Z,100.00
2023-04-20T01:03:08.112Z,100.00
2023-04-20T01:05:35.669Z,100.00
2023-04-20T01:08:07.576Z,100.00
2023-04-20T01:10:38.268Z,100.00
2023-04-20T01:13:07.204Z,100.00
2023-04-20T01:15:35.363Z,100.00
2023-04-20T01:18:03.781Z,100.00
2023-04-20T01:20:30.740Z,100.00
2023-04-20T01:22:58.340Z,100.00
2023-04-20T01:25:29.911Z,100.00
2023-04-20T01:27:56.998Z,100.00
2023-04-20T01:30:31.831Z,100.00
2023-04-20T01:32:59.299Z,100.00
2023-04-20T01:35:26.428Z,100.00
2023-04-20T01:37:53.906Z,100.00
2023-04-20T01:40:23.361Z,100.00
2023-04-20T01:42:53.412Z,100.00
2023-04-20T01:45:22.544Z,100.00
2023-04-20T01:47:50.878Z,100.00
2023-04-20T01:50:17.751Z,100.00
2023-04-20T01:52:46.167Z,100.00
2023-04-20T01:55:13.469Z,100.00
2023-04-20T01:57:40.215Z,100.00
2023-04-20T02:00:09.045Z,100.00
2023-04-20T02:02:41.009Z,100.00
2023-04-20T02:05:08.460Z,100.00
2023-04-20T02:07:35.476Z,100.00
2023-04-20T02:10:03.591Z,100.00
2023-04-20T02:12:32.204Z,100.00
2023-04-20T02:14:59.099Z,100.00
2023-04-20T02:17:29.101Z,100.00
2023-04-20T02:19:56.861Z,100.00
2023-04-20T02:22:26.171Z,100.00
2023-04-20T02:24:53.620Z,100.00
2023-04-20T02:27:21.237Z,100.00
2023-04-20T02:29:48.243Z,100.00
2023-04-20T02:32:14.859Z,100.00
2023-04-20T02:34:41.743Z,100.00
2023-04-20T02:37:08.401Z,100.00
2023-04-20T02:39:51.243Z,100.00
2023-04-20T02:42:36.213Z,100.00
2023-04-20T02:45:06.710Z,100.00
2023-04-20T02:47:44.576Z,100.00
2023-04-20T02:53:11.605Z,100.00
2023-04-20T02:58:57.057Z,100.00
2023-04-20T03:01:47.153Z,100.00
2023-04-20T03:04:16.679Z,100.00
2023-04-20T03:06:53.786Z,100.00
2023-04-20T03:09:26.481Z,100.00
2023-04-20T03:11:58.047Z,100.00
2023-04-20T03:15:00.210Z,100.00
2023-04-20T03:17:44.140Z,100.00
2023-04-20T03:20:11.661Z,100.00
2023-04-20T03:22:38.538Z,100.00
2023-04-20T03:25:07.781Z,100.00
2023-04-20T03:27:51.227Z,100.00
2023-04-20T03:30:19.171Z,100.00
2023-04-20T03:32:50.350Z,100.00
2023-04-20T03:35:17.853Z,100.00
2023-04-20T03:37:44.724Z,100.00
2023-04-20T03:40:11.914Z,100.00
2023-04-20T03:42:38.627Z,100.00
2023-04-20T03:45:06.666Z,100.00
2023-04-20T03:47:33.468Z,100.00
2023-04-20T03:50:00.227Z,100.00
2023-04-20T03:52:27.141Z,100.00
2023-04-20T03:54:53.808Z,100.00
2023-04-20T03:57:20.476Z,100.00
2023-04-20T03:59:48.423Z,100.00
2023-04-20T04:02:18.880Z,100.00
2023-04-20T04:04:47.007Z,100.00
2023-04-20T04:07:13.846Z,100.00
2023-04-20T04:09:42.428Z,100.00
2023-04-20T04:12:09.600Z,100.00
2023-04-20T04:14:36.340Z,100.00
2023-04-20T04:17:03.703Z,100.00
2023-04-20T04:19:32.397Z,100.00
2023-04-20T04:21:59.634Z,100.00
2023-04-20T04:24:26.861Z,100.00
2023-04-20T04:27:05.337Z,100.00
2023-04-20T04:29:38.565Z,100.00
2023-04-20T04:32:09.662Z,100.00
2023-04-20T04:34:37.766Z,100.00
2023-04-20T04:37:04.870Z,100.00
2023-04-20T04:39:46.358Z,100.00
2023-04-20T04:42:19.240Z,100.00
2023-04-20T04:44:47.210Z,100.00
2023-04-20T04:47:22.117Z,100.00
2023-04-20T04:49:49.709Z,100.00
2023-04-20T04:52:16.367Z,100.00
2023-04-20T04:54:43.105Z,100.00
2023-04-20T04:57:09.727Z,100.00
2023-04-20T04:59:36.521Z,100.00
2023-04-20T05:02:03.318Z,100.00
2023-04-20T05:04:30.220Z,100.00
2023-04-20T05:06:57.035Z,100.00
2023-04-20T05:09:23.774Z,100.00
2023-04-20T05:11:50.422Z,100.00
2023-04-20T05:14:17.086Z,100.00
2023-04-20T05:16:43.918Z,100.00
2023-04-20T05:19:10.803Z,100.00
2023-04-20T05:21:39.301Z,100.00
2023-04-20T05:24:06.575Z,100.00
2023-04-20T05:26:33.345Z,100.00
2023-04-20T05:29:00.042Z,100.00
2023-04-20T05:31:26.807Z,100.00
2023-04-20T05:33:53.513Z,100.00
2023-04-20T05:36:20.786Z,100.00
2023-04-20T05:38:47.501Z,100.00
2023-04-20T05:41:14.201Z,100.00
2023-04-20T05:43:41.084Z,100.00
2023-04-20T05:46:07.694Z,100.00
2023-04-20T05:48:34.376Z,100.00
2023-04-20T05:51:01.099Z,100.00
2023-04-20T05:53:27.800Z,100.00
2023-04-20T05:55:54.544Z,100.00
2023-04-20T05:58:21.233Z,100.00
2023-04-20T06:00:47.902Z,100.00
2023-04-20T06:03:14.792Z,100.00
2023-04-20T06:05:41.680Z,100.00
2023-04-20T06:08:08.418Z,100.00
2023-04-20T06:10:35.226Z,100.00
2023-04-20T06:13:01.935Z,100.00
2023-04-20T06:15:28.658Z,100.00
2023-04-20T06:17:55.393Z,100.00
2023-04-20T06:20:22.159Z,100.00
2023-04-20T06:22:48.916Z,100.00
2023-04-20T06:25:16.009Z,100.00
2023-04-20T06:27:42.816Z,100.00
2023-04-20T06:30:10.115Z,100.00
2023-04-20T06:32:37.974Z,100.00
2023-04-20T06:35:07.871Z,100.00
2023-04-20T06:37:37.701Z,100.00
2023-04-20T06:40:08.950Z,100.00
2023-04-20T06:42:36.276Z,100.00
2023-04-20T06:45:06.759Z,100.00
2023-04-20T06:47:34.098Z,100.00
2023-04-20T06:50:02.221Z,100.00
2023-04-20T06:52:30.625Z,100.00
2023-04-20T06:54:59.389Z,100.00
2023-04-20T06:57:28.530Z,100.00
2023-04-20T06:59:55.219Z,100.00
2023-04-20T07:02:21.937Z,100.00
2023-04-20T07:04:48.883Z,100.00
2023-04-20T07:07:15.688Z,100.00
2023-04-20T07:09:42.406Z,100.00
2023-04-20T07:12:09.518Z,100.00
2023-04-20T07:14:36.188Z,100.00
2023-04-20T07:17:02.901Z,100.00
2023-04-20T07:19:29.618Z,100.00
2023-04-20T07:21:56.252Z,100.00
2023-04-20T07:24:22.892Z,100.00
2023-04-20T07:26:49.808Z,100.00
2023-04-20T07:29:19.018Z,100.00
2023-04-20T07:31:46.060Z,100.00
2023-04-20T07:34:12.800Z,100.00
2023-04-20T07:36:39.499Z,100.00
2023-04-20T07:39:06.261Z,100.00
2023-04-20T07:41:32.971Z,100.00
2023-04-20T07:43:59.785Z,100.00
2023-04-20T07:46:28.410Z,100.00
2023-04-20T07:48:55.123Z,100.00
2023-04-20T07:51:21.788Z,100.00
2023-04-20T07:53:48.571Z,100.00
2023-04-20T07:56:15.474Z,100.00
2023-04-20T07:58:42.155Z,100.00
2023-04-20T08:01:08.852Z,100.00
2023-04-20T08:03:36.404Z,100.00
2023-04-20T08:06:03.597Z,100.00
2023-04-20T08:08:30.439Z,100.00
2023-04-20T08:10:58.936Z,100.00
2023-04-20T08:13:26.030Z,100.00
2023-04-20T08:15:52.794Z,100.00
2023-04-20T08:18:21.181Z,100.00
2023-04-20T08:20:48.157Z,100.00
2023-04-20T08:23:14.818Z,100.00
2023-04-20T08:25:41.486Z,100.00
2023-04-20T08:28:12.025Z,100.00
2023-04-20T08:30:42.263Z,100.00
2023-04-20T08:33:08.992Z,100.00
2023-04-20T08:35:38.000Z,100.00
2023-04-20T08:38:04.659Z,100.00
2023-04-20T08:40:32.049Z,100.00
2023-04-20T08:43:01.577Z,98.56
2023-04-20T08:45:29.184Z,96.26
2023-04-20T08:47:59.811Z,94.03
2023-04-20T08:50:26.611Z,91.68
2023-04-20T08:52:53.228Z,91.45
2023-04-20T08:55:19.966Z,88.73
2023-04-20T08:57:49.062Z,88.34
2023-04-20T09:00:16.317Z,87.53
2023-04-20T09:02:54.523Z,86.41
2023-04-20T09:05:30.053Z,90.81
2023-04-20T09:07:59.100Z,88.89
2023-04-20T09:10:27.646Z,90.93
2023-04-20T09:12:54.378Z,94.19
2023-04-20T09:15:28.363Z,91.25
2023-04-20T09:17:55.766Z,94.00
2023-04-20T09:20:34.013Z,93.19
2023-04-20T09:23:13.613Z,93.90
2023-04-20T09:25:42.705Z,94.09
2023-04-20T09:28:09.923Z,94.30
2023-04-20T09:30:40.366Z,96.36
2023-04-20T09:33:08.655Z,95.57
2023-04-20T09:35:36.210Z,97.08
2023-04-20T09:38:02.885Z,96.03
2023-04-20T09:40:30.474Z,99.44
2023-04-20T09:42:59.458Z,99.94
2023-04-20T09:45:26.289Z,99.51
2023-04-20T09:47:53.214Z,100.00
2023-04-20T09:50:29.073Z,100.00
2023-04-20T09:53:00.342Z,100.00
2023-04-20T09:55:27.526Z,100.00
2023-04-20T09:57:54.416Z,100.00
2023-04-20T10:00:21.708Z,100.00
2023-04-20T10:02:48.614Z,100.00
2023-04-20T10:05:16.929Z,100.00
2023-04-20T10:07:44.193Z,100.00
2023-04-20T10:10:16.100Z,100.00
2023-04-20T10:12:50.341Z,100.00
2023-04-20T10:15:17.320Z,100.00
2023-04-20T10:17:44.531Z,100.00
2023-04-20T10:20:25.653Z,100.00
2023-04-20T10:22:53.098Z,100.00
2023-04-20T10:25:24.373Z,100.00
2023-04-20T10:27:55.528Z,100.00
2023-04-20T10:30:23.299Z,100.00
2023-04-20T10:32:50.688Z,100.00
2023-04-20T10:35:17.583Z,100.00
2023-04-20T10:37:49.552Z,100.00
2023-04-20T10:40:16.756Z,100.00
2023-04-20T10:42:44.766Z,100.00
2023-04-20T10:45:12.223Z,97.19
2023-04-20T10:47:40.842Z,98.73
2023-04-20T10:50:12.556Z,97.20
2023-04-20T10:52:41.090Z,95.37
2023-04-20T10:55:22.035Z,93.64
2023-04-20T10:57:49.525Z,90.71
2023-04-20T11:00:22.042Z,89.76
2023-04-20T11:02:54.214Z,89.15
2023-04-20T11:05:23.638Z,89.72
2023-04-20T11:08:01.226Z,92.85
2023-04-20T11:10:42.478Z,94.05
2023-04-20T11:13:25.835Z,91.46
2023-04-20T11:15:52.729Z,88.37
2023-04-20T11:18:19.542Z,89.01
2023-04-20T11:20:52.865Z,88.85
2023-04-20T11:23:21.338Z,88.84
2023-04-20T11:25:57.581Z,86.63
2023-04-20T11:28:25.910Z,86.00
2023-04-20T11:30:52.866Z,83.90
2023-04-20T11:33:29.906Z,83.20
2023-04-20T11:36:00.980Z,84.14
2023-04-20T11:38:28.599Z,84.57
2023-04-20T11:40:56.052Z,84.69
2023-04-20T11:43:22.945Z,83.85
2023-04-20T11:45:49.603Z,82.92
2023-04-20T11:48:16.284Z,83.17
2023-04-20T11:50:43.285Z,83.20
2023-04-20T11:53:14.072Z,85.81
2023-04-20T11:55:41.855Z,84.71
2023-04-20T11:58:08.746Z,84.69
2023-04-20T12:00:35.572Z,84.33
2023-04-20T12:03:02.488Z,83.93
2023-04-20T12:05:29.745Z,83.21
2023-04-20T12:07:56.775Z,82.88
2023-04-20T12:10:23.580Z,81.01
2023-04-20T12:12:50.282Z,81.26
2023-04-20T12:15:17.127Z,79.82
2023-04-20T12:17:43.780Z,78.84
2023-04-20T12:20:12.528Z,79.45
2023-04-20T12:22:39.297Z,79.65
2023-04-20T12:25:06.850Z,78.89
2023-04-20T12:27:33.509Z,78.81
2023-04-20T12:30:00.396Z,76.09
2023-04-20T12:32:27.170Z,74.53
2023-04-20T12:34:53.871Z,76.04
2023-04-20T12:37:20.827Z,74.20
2023-04-20T12:39:47.551Z,73.18
2023-04-20T12:42:14.264Z,75.74
2023-04-20T12:44:40.979Z,73.80
2023-04-20T12:47:10.067Z,73.03
2023-04-20T12:49:39.350Z,72.27
2023-04-20T12:52:07.922Z,74.52
2023-04-20T12:54:34.853Z,75.19
2023-04-20T12:57:02.533Z,72.68
2023-04-20T12:59:29.273Z,76.46
2023-04-20T13:01:56.030Z,77.45
2023-04-20T13:04:23.304Z,79.73
2023-04-20T13:06:50.416Z,81.16
2023-04-20T13:09:17.080Z,82.53
2023-04-20T13:11:43.810Z,81.20
2023-04-20T13:14:10.523Z,78.75
2023-04-20T13:16:37.692Z,73.91
2023-04-20T13:19:04.457Z,74.11
2023-04-20T13:21:31.092Z,74.17
2023-04-20T13:23:57.757Z,75.19
2023-04-20T13:26:24.428Z,71.99
2023-04-20T13:28:51.041Z,69.21
2023-04-20T13:31:17.805Z,70.56
2023-04-20T13:33:44.508Z,69.56
2023-04-20T13:36:11.456Z,69.72
2023-04-20T13:38:38.096Z,68.79
2023-04-20T13:41:05.016Z,73.75
2023-04-20T13:43:31.590Z,75.37
2023-04-20T13:45:58.327Z,75.04
2023-04-20T13:48:27.798Z,73.80
2023-04-20T13:50:54.765Z,72.38
2023-04-20T13:53:21.993Z,73.02
2023-04-20T13:55:48.742Z,68.10
2023-04-20T13:58:15.367Z,70.59
2023-04-20T14:00:41.998Z,71.01
2023-04-20T14:03:12.077Z,73.25
2023-04-20T14:05:39.045Z,74.83
2023-04-20T14:08:06.932Z,74.03
2023-04-20T14:10:34.088Z,70.27
2023-04-20T14:13:01.594Z,70.91
2023-04-20T14:15:28.323Z,68.16
2023-04-20T14:17:55.077Z,66.05
2023-04-20T14:20:21.802Z,64.19
2023-04-20T14:22:48.488Z,63.32
2023-04-20T14:25:15.048Z,62.61
2023-04-20T14:27:41.684Z,62.66
2023-04-20T14:30:09.176Z,62.51
2023-04-20T14:32:36.245Z,62.62
2023-04-20T14:35:05.623Z,63.01
2023-04-20T14:37:33.264Z,62.60
2023-04-20T14:39:59.961Z,61.91
2023-04-20T14:42:26.711Z,61.96
2023-04-20T14:44:53.615Z,63.11
2023-04-20T14:47:20.830Z,62.63
2023-04-20T14:49:47.974Z,62.74
2023-04-20T14:52:14.757Z,64.58
2023-04-20T14:54:41.345Z,62.92
2023-04-20T14:57:08.019Z,63.28
2023-04-20T14:59:34.687Z,63.39
2023-04-20T15:02:03.274Z,63.86
2023-04-20T15:04:30.782Z,65.18
2023-04-20T15:06:57.739Z,65.02
2023-04-20T15:09:24.444Z,63.75
2023-04-20T15:11:51.089Z,63.88
2023-04-20T15:14:17.796Z,64.29
2023-04-20T15:16:44.588Z,63.69
2023-04-20T15:19:11.247Z,63.00
2023-04-20T15:21:37.917Z,64.29
2023-04-20T15:24:04.805Z,65.07
2023-04-20T15:26:31.445Z,64.81
2023-04-20T15:28:58.041Z,64.77
2023-04-20T15:31:24.687Z,64.50
2023-04-20T15:33:51.465Z,64.49
2023-04-20T15:36:19.438Z,65.29
2023-04-20T15:38:46.442Z,65.12
2023-04-20T15:41:13.198Z,65.20
2023-04-20T15:43:39.849Z,65.20
2023-04-20T15:46:06.653Z,65.93
2023-04-20T15:48:33.336Z,65.93
2023-04-20T15:51:00.036Z,66.63
2023-04-20T15:53:26.779Z,66.77
2023-04-20T15:55:53.485Z,66.04
2023-04-20T15:58:20.160Z,66.68
2023-04-20T16:00:46.881Z,66.59
2023-04-20T16:03:13.718Z,65.94
2023-04-20T16:05:40.524Z,66.33
2023-04-20T16:08:07.275Z,67.17
2023-04-20T16:10:34.276Z,67.47
2023-04-20T16:13:00.983Z,69.02
2023-04-20T16:15:27.712Z,68.70
2023-04-20T16:17:54.837Z,69.05
2023-04-20T16:20:21.589Z,69.63
2023-04-20T16:22:48.276Z,69.63
2023-04-20T16:25:22.616Z,68.91
2023-04-20T16:27:51.512Z,69.12
2023-04-20T16:30:18.381Z,70.34
2023-04-20T16:32:45.122Z,71.21
2023-04-20T16:35:11.891Z,71.61
2023-04-20T16:37:38.646Z,71.90
2023-04-20T16:40:06.214Z,71.65
2023-04-20T16:42:34.302Z,72.47
2023-04-20T16:45:01.307Z,73.28
2023-04-20T16:47:28.025Z,73.54
2023-04-20T16:49:56.007Z,73.13
2023-04-20T16:52:22.698Z,72.94
2023-04-20T16:54:49.348Z,73.57
2023-04-20T16:57:16.005Z,74.39
2023-04-20T16:59:44.059Z,74.16
2023-04-20T17:02:12.478Z,74.56
2023-04-20T17:04:39.207Z,75.18
2023-04-20T17:07:06.305Z,76.10
2023-04-20T17:09:33.039Z,76.50
2023-04-20T17:11:59.801Z,77.01
2023-04-20T17:14:26.532Z,77.86
2023-04-20T17:16:54.285Z,78.46
2023-04-20T17:19:21.135Z,79.98
2023-04-20T17:21:47.866Z,80.31
2023-04-20T17:24:14.657Z,81.34
2023-04-20T17:26:41.306Z,82.19
2023-04-20T17:29:08.109Z,82.91
2023-04-20T17:31:34.845Z,83.13
2023-04-20T17:34:01.562Z,83.70
2023-04-20T17:36:28.201Z,84.79
2023-04-20T17:38:54.842Z,85.50
2023-04-20T17:41:21.472Z,86.93
2023-04-20T17:43:50.865Z,88.30
2023-04-20T17:46:17.569Z,90.50
2023-04-20T17:48:44.365Z,92.59
2023-04-20T17:51:13.694Z,93.87
2023-04-20T17:53:40.390Z,96.89
2023-04-20T17:56:07.080Z,99.66
2023-04-20T17:58:33.697Z,100.00
2023-04-20T18:01:00.368Z,100.00
2023-04-20T18:03:28.171Z,100.00
2023-04-20T18:05:54.986Z,100.00
2023-04-20T18:08:23.273Z,100.00
2023-04-20T18:10:50.065Z,100.00
2023-04-20T18:13:16.742Z,100.00
2023-04-20T18:15:43.723Z,100.00
2023-04-20T18:18:10.472Z,100.00
2023-04-20T18:20:37.108Z,100.00
2023-04-20T18:23:03.726Z,100.00
2023-04-20T18:25:30.412Z,100.00
2023-04-20T18:27:57.110Z,100.00
2023-04-20T18:30:23.795Z,100.00
2023-04-20T18:32:50.495Z,100.00
2023-04-20T18:35:17.235Z,100.00
2023-04-20T18:37:43.868Z,100.00
2023-04-20T18:40:11.005Z,100.00
2023-04-20T18:42:37.673Z,100.00
2023-04-20T18:45:06.182Z,100.00
2023-04-20T18:47:32.851Z,100.00
2023-04-20T18:49:59.576Z,100.00
2023-04-20T18:52:26.322Z,100.00
2023-04-20T18:54:55.388Z,100.00
2023-04-20T18:57:26.162Z,100.00
2023-04-20T18:59:53.062Z,100.00
2023-04-20T19:02:20.550Z,100.00
2023-04-20T19:04:47.352Z,100.00
2023-04-20T19:07:14.000Z,100.00
2023-04-20T19:09:40.758Z,100.00
2023-04-20T19:12:07.513Z,100.00
2023-04-20T19:14:34.279Z,100.00
2023-04-20T19:17:04.038Z,100.00
2023-04-20T19:19:30.729Z,100.00
2023-04-20T19:21:59.034Z,100.00
2023-04-20T19:24:25.840Z,100.00
2023-04-20T19:26:52.975Z,100.00
2023-04-20T19:29:19.735Z,100.00
2023-04-20T19:31:46.421Z,100.00
2023-04-20T19:34:13.518Z,100.00
2023-04-20T19:36:41.828Z,100.00
2023-04-20T19:39:09.234Z,100.00
2023-04-20T19:41:35.937Z,100.00
2023-04-20T19:44:06.188Z,100.00
2023-04-20T19:46:33.710Z,100.00
2023-04-20T19:49:03.307Z,100.00
2023-04-20T19:51:31.467Z,100.00
2023-04-20T19:54:01.903Z,100.00
2023-04-20T19:56:28.636Z,100.00
2023-04-20T19:58:55.355Z,100.00
2023-04-20T20:01:22.018Z,100.00
2023-04-20T20:03:48.843Z,100.00
2023-04-20T20:06:15.874Z,100.00
2023-04-20T20:08:42.706Z,100.00
2023-04-20T20:11:09.429Z,100.00
2023-04-20T20:13:36.028Z,100.00
2023-04-20T20:16:02.834Z,100.00
2023-04-20T20:18:29.484Z,100.00
2023-04-20T20:20:56.129Z,100.00
2023-04-20T20:23:22.786Z,100.00
2023-04-20T20:25:49.429Z,100.00
2023-04-20T20:28:16.110Z,100.00
2023-04-20T20:30:45.210Z,100.00
2023-04-20T20:33:12.507Z,100.00
2023-04-20T20:35:39.901Z,100.00
2023-04-20T20:38:07.790Z,100.00
2023-04-20T20:40:35.051Z,100.00
2023-04-20T20:43:02.129Z,100.00
2023-04-20T20:45:28.984Z,100.00
2023-04-20T20:47:55.840Z,100.00
2023-04-20T20:50:23.034Z,100.00
2023-04-20T20:52:49.883Z,100.00
2023-04-20T20:55:16.541Z,100.00
2023-04-20T20:57:43.270Z,100.00
2023-04-20T21:00:11.978Z,100.00
2023-04-20T21:02:39.082Z,100.00
2023-04-20T21:05:06.330Z,100.00
2023-04-20T21:07:33.101Z,100.00
2023-04-20T21:10:00.049Z,100.00
2023-04-20T21:12:26.678Z,100.00
2023-04-20T21:14:53.406Z,100.00
2023-04-20T21:17:20.397Z,100.00
2023-04-20T21:19:47.249Z,100.00
2023-04-20T21:22:13.987Z,100.00
2023-04-20T21:24:40.914Z,100.00
2023-04-20T21:27:07.548Z,100.00
2023-04-20T21:29:34.190Z,100.00
2023-04-20T21:32:00.853Z,100.00
2023-04-20T21:34:27.837Z,100.00
2023-04-20T21:36:54.735Z,100.00
2023-04-20T21:39:21.450Z,100.00
2023-04-20T21:41:48.191Z,100.00
2023-04-20T21:44:14.839Z,100.00
2023-04-20T21:46:41.634Z,100.00
2023-04-20T21:59:52.126Z,100.00
2023-04-20T22:02:19.446Z,100.00
2023-04-20T22:04:46.525Z,100.00
2023-04-20T22:07:14.667Z,100.00
2023-04-20T22:09:43.926Z,100.00
2023-04-20T22:12:13.314Z,100.00
2023-04-20T22:14:43.764Z,100.00
2023-04-20T22:17:12.535Z,100.00
2023-04-20T22:19:54.973Z,100.00
2023-04-20T22:22:23.496Z,100.00
2023-04-20T22:24:51.052Z,100.00
2023-04-20T22:27:18.386Z,100.00
2023-04-20T22:29:45.414Z,100.00
2023-04-20T22:32:12.306Z,100.00
2023-04-20T22:34:39.270Z,100.00
2023-04-20T22:37:09.125Z,100.00
2023-04-20T22:39:36.640Z,100.00
2023-04-20T22:50:14.759Z,100.00
2023-04-20T22:52:41.761Z,100.00
2023-04-20T22:55:09.697Z,100.00
2023-04-20T22:57:39.156Z,100.00
2023-04-20T23:00:10.274Z,100.00
2023-04-20T23:02:37.764Z,100.00
2023-04-20T23:05:06.480Z,100.00
2023-04-20T23:07:33.504Z,100.00
2023-04-20T23:10:00.485Z,100.00
2023-04-20T23:12:29.481Z,100.00
2023-04-20T23:15:00.538Z,100.00
2023-04-20T23:17:28.466Z,100.00
2023-04-20T23:19:56.567Z,100.00
2023-04-20T23:22:23.869Z,100.00
2023-04-20T23:24:50.885Z,100.00
2023-04-20T23:27:19.319Z,100.00
2023-04-20T23:29:46.480Z,100.00
2023-04-20T23:32:13.432Z,100.00
2023-04-20T23:34:40.323Z,100.00
2023-04-20T23:37:07.056Z,100.00
2023-04-20T23:39:37.995Z,100.00
2023-04-20T23:42:05.701Z,100.00
2023-04-20T23:44:32.525Z,100.00
2023-04-20T23:47:00.135Z,100.00
2023-04-20T23:49:27.161Z,100.00
2023-04-20T23:55:19.170Z,100.00
2023-04-20T23:57:47.652Z,100.00
